Terminal Aerodrome Forecast
Issued by NWS Dodge City, KS

Home | Current Version | Previous Version | Text Only | Print | Product List | Glossary On
Versions: 1 2 3 4 5 6 7 8 9 10 11 12 13 14 15
000
FTUS43 KDDC 231736
TAFDDC
TAF
KDDC 231736Z 2318/2418 16010G19KT P6SM SCT250
     FM232000 21014G25KT P6SM VCSH SCT250
     FM232100 22018G30KT P6SM SCT200
     FM240000 28017G25KT P6SM SCT250
     FM240600 33018G26KT P6SM FEW050=

USA.gov is the U.S. government's official web portal to all federal, state and local government web resources and services.